createdAt,value
2018-11-03T00:00:46.462Z,7.35
2018-11-03T00:03:13.410Z,7.37
2018-11-03T00:05:40.377Z,7.60
2018-11-03T00:08:07.333Z,11.80
2018-11-03T00:10:34.274Z,8.88
2018-11-03T00:13:01.198Z,8.30
2018-11-03T00:15:28.142Z,9.80
2018-11-03T00:17:55.087Z,12.63
2018-11-03T00:20:22.140Z,9.73
2018-11-03T00:22:49.079Z,10.28
2018-11-03T00:25:16.016Z,8.33
2018-11-03T00:27:42.949Z,9.80
2018-11-03T00:30:11.661Z,11.75
2018-11-03T00:32:38.591Z,9.73
2018-11-03T00:35:05.542Z,7.80
2018-11-03T00:37:32.598Z,8.15
2018-11-03T00:39:59.547Z,10.65
2018-11-03T00:42:26.691Z,8.68
2018-11-03T00:44:53.664Z,8.38
2018-11-03T00:47:20.595Z,11.73
2018-11-03T00:49:47.530Z,7.95
2018-11-03T00:52:14.469Z,11.35
2018-11-03T00:54:41.397Z,9.00
2018-11-03T00:57:08.377Z,10.95
2018-11-03T00:59:35.329Z,13.28
2018-11-03T01:02:02.312Z,10.10
2018-11-03T01:04:29.247Z,11.15
2018-11-03T01:06:56.350Z,12.20
2018-11-03T01:09:23.521Z,11.43
2018-11-03T01:11:50.456Z,11.43
2018-11-03T01:14:17.417Z,8.58
2018-11-03T01:16:44.348Z,8.40
2018-11-03T01:19:11.304Z,10.98
2018-11-03T01:21:38.230Z,10.18
2018-11-03T01:24:05.420Z,9.65
2018-11-03T01:26:32.366Z,10.53
2018-11-03T01:28:59.289Z,8.28
2018-11-03T01:31:26.266Z,8.43
2018-11-03T01:33:53.185Z,10.38
2018-11-03T01:36:20.130Z,8.90
2018-11-03T01:38:47.046Z,9.65
2018-11-03T01:41:13.968Z,9.93
2018-11-03T01:43:40.906Z,9.75
2018-11-03T01:46:07.836Z,9.53
2018-11-03T01:48:34.774Z,13.53
2018-11-03T01:51:01.686Z,10.08
2018-11-03T01:53:28.617Z,12.75
2018-11-03T01:55:55.553Z,9.78
2018-11-03T01:58:22.484Z,9.33
2018-11-03T02:00:49.409Z,12.58
2018-11-03T02:03:16.337Z,9.68
2018-11-03T02:05:43.282Z,10.53
2018-11-03T02:08:10.208Z,14.38
2018-11-03T02:10:37.150Z,12.93
2018-11-03T02:13:04.102Z,14.50
2018-11-03T02:15:31.042Z,11.63
2018-11-03T02:17:57.960Z,11.75
2018-11-03T02:20:24.884Z,12.05
2018-11-03T02:22:51.839Z,11.28
2018-11-03T02:25:18.772Z,13.95
2018-11-03T02:27:45.702Z,12.10
2018-11-03T02:30:12.633Z,10.95
2018-11-03T02:32:39.728Z,13.25
2018-11-03T02:35:07.688Z,13.93
2018-11-03T02:37:34.613Z,15.70
2018-11-03T02:40:01.629Z,12.45
2018-11-03T02:42:28.575Z,14.63
2018-11-03T02:44:55.488Z,12.60
2018-11-03T02:47:22.433Z,13.28
2018-11-03T02:49:49.364Z,13.28
2018-11-03T02:52:16.282Z,12.65
2018-11-03T02:54:43.214Z,15.18
2018-11-03T02:57:10.159Z,12.25
2018-11-03T02:59:37.090Z,13.70
2018-11-03T03:02:04.374Z,12.47
2018-11-03T03:04:31.270Z,10.43
2018-11-03T03:06:58.218Z,11.38
2018-11-03T03:09:25.237Z,10.25
2018-11-03T03:11:52.169Z,11.95
2018-11-03T03:14:19.081Z,10.93
2018-11-03T03:16:46.018Z,12.33
2018-11-03T03:19:13.398Z,12.35
2018-11-03T03:21:40.343Z,10.65
2018-11-03T03:24:07.265Z,13.13
2018-11-03T03:26:34.193Z,14.53
2018-11-03T03:29:01.176Z,11.78
2018-11-03T03:31:28.047Z,12.58
2018-11-03T03:33:54.987Z,11.75
2018-11-03T03:36:21.941Z,11.80
2018-11-03T03:38:48.869Z,12.37
2018-11-03T03:41:15.787Z,10.38
2018-11-03T03:43:42.821Z,12.60
2018-11-03T03:46:09.741Z,13.08
2018-11-03T03:48:36.683Z,12.45
2018-11-03T03:51:03.616Z,11.60
2018-11-03T03:53:30.543Z,11.68
2018-11-03T03:55:57.472Z,13.95
2018-11-03T03:58:24.466Z,12.23
2018-11-03T04:00:51.406Z,11.60
2018-11-03T04:03:18.356Z,12.30
2018-11-03T04:05:45.338Z,13.95
2018-11-03T04:08:12.307Z,16.67
2018-11-03T04:10:39.234Z,13.03
2018-11-03T04:13:12.841Z,15.10
2018-11-03T04:15:39.777Z,13.75
2018-11-03T04:18:06.698Z,12.05
2018-11-03T04:20:33.631Z,15.70
2018-11-03T04:23:00.590Z,16.62
2018-11-03T04:25:27.510Z,15.28
2018-11-03T04:27:54.449Z,13.50
2018-11-03T04:30:21.370Z,15.93
2018-11-03T04:32:48.294Z,12.55
2018-11-03T04:35:15.222Z,13.38
2018-11-03T04:37:42.159Z,14.38
2018-11-03T04:40:10.708Z,13.88
2018-11-03T04:42:37.869Z,13.40
2018-11-03T04:45:05.577Z,13.48
2018-11-03T04:47:32.498Z,15.88
2018-11-03T04:49:59.431Z,12.55
2018-11-03T04:52:26.352Z,13.70
2018-11-03T04:54:53.338Z,12.70
2018-11-03T04:57:20.216Z,12.73
2018-11-03T04:59:47.181Z,14.35
2018-11-03T05:02:14.486Z,15.98
2018-11-03T05:04:41.442Z,15.28
2018-11-03T05:07:08.345Z,15.95
2018-11-03T05:09:35.240Z,14.38
2018-11-03T05:12:02.157Z,17.02
2018-11-03T05:14:29.200Z,16.40
2018-11-03T05:16:56.133Z,16.50
2018-11-03T05:19:23.056Z,15.98
2018-11-03T05:21:49.957Z,17.65
2018-11-03T05:24:16.868Z,20.92
2018-11-03T05:26:43.808Z,20.90
2018-11-03T05:29:10.736Z,17.00
2018-11-03T05:31:44.627Z,20.15
2018-11-03T05:34:11.598Z,20.30
2018-11-03T05:36:38.492Z,18.85
2018-11-03T05:39:07.379Z,21.12
2018-11-03T05:41:34.297Z,19.05
2018-11-03T05:44:01.206Z,19.82
2018-11-03T05:46:28.193Z,19.90
2018-11-03T05:48:55.114Z,21.48
2018-11-03T05:51:22.041Z,23.70
2018-11-03T05:53:48.960Z,26.42
2018-11-03T05:56:15.885Z,21.05
2018-11-03T06:01:16.394Z,21.68
2018-11-03T06:03:43.282Z,17.67
2018-11-03T06:06:10.232Z,18.05
2018-11-03T06:08:37.157Z,20.77
2018-11-03T06:11:04.553Z,19.23
2018-11-03T06:13:31.461Z,18.42
2018-11-03T06:15:58.442Z,18.75
2018-11-03T06:18:25.339Z,19.10
2018-11-03T06:20:52.248Z,19.02
2018-11-03T06:23:19.231Z,18.27
2018-11-03T06:25:46.101Z,18.85
2018-11-03T06:28:13.134Z,17.87
2018-11-03T06:30:39.976Z,20.52
2018-11-03T06:33:06.880Z,21.33
2018-11-03T06:35:33.801Z,23.20
2018-11-03T06:38:00.692Z,20.57
2018-11-03T06:40:27.607Z,23.47
2018-11-03T06:42:54.515Z,23.35
2018-11-03T06:45:21.424Z,20.70
2018-11-03T06:47:48.720Z,22.52
2018-11-03T06:50:15.629Z,24.20
2018-11-03T06:52:42.544Z,22.10
2018-11-03T06:55:09.517Z,23.92
2018-11-03T06:57:36.448Z,27.87
2018-11-03T07:00:04.630Z,23.45
2018-11-03T07:02:31.540Z,21.17
2018-11-03T07:04:58.463Z,20.02
2018-11-03T07:07:25.374Z,21.35
2018-11-03T07:09:52.268Z,21.40
2018-11-03T07:12:19.303Z,19.10
2018-11-03T07:14:46.148Z,24.05
2018-11-03T07:17:13.098Z,20.68
2018-11-03T07:19:40.000Z,22.90
2018-11-03T07:22:06.922Z,23.40
2018-11-03T07:24:33.836Z,21.95
2018-11-03T07:27:00.749Z,23.45
2018-11-03T07:29:27.698Z,22.75
2018-11-03T07:31:54.627Z,23.65
2018-11-03T07:34:21.534Z,24.12
2018-11-03T07:36:48.466Z,21.77
2018-11-03T07:39:15.396Z,23.60
2018-11-03T07:41:42.441Z,25.12
2018-11-03T07:44:09.519Z,24.12
2018-11-03T07:46:36.454Z,21.97
2018-11-03T07:49:03.573Z,23.07
2018-11-03T07:51:30.325Z,23.55
2018-11-03T07:53:57.282Z,24.07
2018-11-03T07:56:24.204Z,21.73
2018-11-03T07:58:51.108Z,23.85
2018-11-03T08:01:18.054Z,22.37
2018-11-03T08:03:44.946Z,22.42
2018-11-03T08:06:11.892Z,23.20
2018-11-03T08:08:38.811Z,23.80
2018-11-03T08:11:05.701Z,21.77
2018-11-03T08:13:32.622Z,22.40
2018-11-03T08:15:59.529Z,22.15
2018-11-03T08:18:26.472Z,21.82
2018-11-03T08:20:53.448Z,22.15
2018-11-03T08:23:20.438Z,21.85
2018-11-03T08:25:47.434Z,20.62
2018-11-03T08:28:14.345Z,20.15
2018-11-03T08:30:41.255Z,23.15
2018-11-03T08:33:08.181Z,21.10
2018-11-03T08:35:35.100Z,21.57
2018-11-03T08:38:02.024Z,21.25
2018-11-03T08:40:28.967Z,19.47
2018-11-03T08:42:55.878Z,21.73
2018-11-03T08:45:22.836Z,21.37
2018-11-03T08:47:49.739Z,17.55
2018-11-03T08:50:16.714Z,18.60
2018-11-03T08:52:43.632Z,18.47
2018-11-03T08:55:11.816Z,17.53
2018-11-03T08:57:38.742Z,18.10
2018-11-03T09:00:09.283Z,17.60
2018-11-03T09:02:36.117Z,16.80
2018-11-03T09:05:03.060Z,16.57
2018-11-03T09:07:29.976Z,16.23
2018-11-03T09:09:56.940Z,16.17
2018-11-03T09:12:23.864Z,15.30
2018-11-03T09:14:50.802Z,15.57
2018-11-03T09:17:17.727Z,13.70
2018-11-03T09:19:44.682Z,13.70
2018-11-03T09:22:11.600Z,12.60
2018-11-03T09:24:38.784Z,13.77
2018-11-03T09:27:05.676Z,12.60
2018-11-03T09:29:32.592Z,12.97
2018-11-03T09:32:00.009Z,13.20
2018-11-03T09:34:26.907Z,11.77
2018-11-03T09:36:54.031Z,11.20
2018-11-03T09:39:21.018Z,10.93
2018-11-03T09:41:47.953Z,11.50
2018-11-03T09:44:14.916Z,10.40
2018-11-03T09:46:48.616Z,10.10
2018-11-03T09:49:16.591Z,9.87
2018-11-03T09:51:44.921Z,9.03
2018-11-03T09:54:11.973Z,8.97
2018-11-03T09:56:39.030Z,9.60
2018-11-03T09:59:05.848Z,8.90
2018-11-03T10:01:33.961Z,9.00
2018-11-03T10:04:00.879Z,9.23
2018-11-03T10:06:27.840Z,8.07
2018-11-03T10:08:54.826Z,9.87
2018-11-03T10:11:23.536Z,7.13
2018-11-03T10:13:50.456Z,8.33
2018-11-03T10:16:17.440Z,8.73
2018-11-03T10:18:44.384Z,8.17
2018-11-03T10:21:11.326Z,7.03
2018-11-03T10:23:38.234Z,7.80
2018-11-03T10:26:05.186Z,8.60
2018-11-03T10:28:32.159Z,7.97
2018-11-03T10:30:59.132Z,7.97
2018-11-03T10:33:26.164Z,7.40
2018-11-03T10:35:53.075Z,6.90
2018-11-03T10:38:20.011Z,7.73
2018-11-03T10:40:46.931Z,8.87
2018-11-03T10:43:14.434Z,6.77
2018-11-03T10:45:41.397Z,7.70
2018-11-03T10:48:08.529Z,6.57
2018-11-03T10:50:35.798Z,6.27
2018-11-03T10:53:02.781Z,10.03
2018-11-03T10:55:29.854Z,8.30
2018-11-03T10:57:56.841Z,6.03
2018-11-03T11:00:29.605Z,5.80
2018-11-03T11:03:02.251Z,7.57
2018-11-03T11:05:35.243Z,5.77
2018-11-03T11:08:07.997Z,6.57
2018-11-03T11:10:40.728Z,5.63
2018-11-03T11:13:11.032Z,5.20
2018-11-03T11:15:37.958Z,5.43
2018-11-03T11:18:05.173Z,5.13
2018-11-03T11:20:32.076Z,5.70
2018-11-03T11:22:58.988Z,5.80
2018-11-03T11:25:25.927Z,4.60
2018-11-03T11:27:52.852Z,4.20
2018-11-03T11:30:19.770Z,7.30
2018-11-03T11:32:46.793Z,3.50
2018-11-03T11:35:13.705Z,7.30
2018-11-03T11:37:40.733Z,5.40
2018-11-03T11:40:07.609Z,4.50
2018-11-03T11:42:34.512Z,5.10
2018-11-03T11:45:01.442Z,4.27
2018-11-03T11:47:28.424Z,5.97
2018-11-03T11:49:55.369Z,4.07
2018-11-03T11:52:22.355Z,3.40
2018-11-03T11:54:49.322Z,4.63
2018-11-03T11:57:16.194Z,5.03
2018-11-03T11:59:43.132Z,4.10
2018-11-03T12:02:10.236Z,5.63
2018-11-03T12:04:37.096Z,4.90
2018-11-03T12:07:04.067Z,4.23
2018-11-03T12:09:30.997Z,4.70
2018-11-03T12:11:57.929Z,5.47
2018-11-03T12:14:24.841Z,4.13
2018-11-03T12:16:51.809Z,4.27
2018-11-03T12:19:18.746Z,4.40
2018-11-03T12:21:45.641Z,5.00
2018-11-03T12:24:12.545Z,4.47
2018-11-03T12:26:39.489Z,5.07
2018-11-03T12:29:06.379Z,3.97
2018-11-03T12:34:07.021Z,5.20
2018-11-03T12:36:33.945Z,4.07
2018-11-03T12:39:00.885Z,5.37
2018-11-03T12:41:28.022Z,7.77
2018-11-03T12:43:54.776Z,6.33
2018-11-03T12:46:21.695Z,4.97
2018-11-03T12:48:48.643Z,4.23
2018-11-03T12:51:15.576Z,4.90
2018-11-03T12:53:42.505Z,3.47
2018-11-03T12:56:09.376Z,5.67
2018-11-03T12:58:36.294Z,4.27
2018-11-03T13:01:03.204Z,4.70
2018-11-03T13:03:30.106Z,6.30
2018-11-03T13:05:57.000Z,4.33
2018-11-03T13:08:23.962Z,4.10
2018-11-03T13:10:50.964Z,4.77
2018-11-03T13:13:17.901Z,3.97
2018-11-03T13:15:44.833Z,5.27
2018-11-03T13:18:11.709Z,6.33
2018-11-03T13:20:38.637Z,3.70
2018-11-03T13:23:05.546Z,3.40
2018-11-03T13:25:32.432Z,3.23
2018-11-03T13:27:59.354Z,4.53
2018-11-03T13:30:26.254Z,6.23
2018-11-03T13:32:53.157Z,5.50
2018-11-03T13:35:20.073Z,6.00
2018-11-03T13:37:47.226Z,5.20
2018-11-03T13:40:14.164Z,6.43
2018-11-03T13:42:41.486Z,5.67
2018-11-03T13:45:09.016Z,5.57
2018-11-03T13:47:36.821Z,10.03
2018-11-03T13:50:09.183Z,4.83
2018-11-03T13:52:36.124Z,4.03
2018-11-03T13:55:03.097Z,4.90
2018-11-03T13:57:29.989Z,4.57
2018-11-03T13:59:56.918Z,5.17
2018-11-03T14:02:23.833Z,4.30
2018-11-03T14:04:50.764Z,4.70
2018-11-03T14:07:17.676Z,7.47
2018-11-03T14:09:44.729Z,4.67
2018-11-03T14:12:11.634Z,3.60
2018-11-03T14:14:38.573Z,6.33
2018-11-03T14:17:05.622Z,4.93
2018-11-03T14:19:32.453Z,6.03
2018-11-03T14:21:59.426Z,7.50
2018-11-03T14:24:26.365Z,3.27
2018-11-03T14:26:53.317Z,5.03
2018-11-03T14:29:20.311Z,4.73
2018-11-03T14:31:47.164Z,5.20
2018-11-03T14:34:14.089Z,4.83
2018-11-03T14:36:41.013Z,3.77
2018-11-03T14:39:08.685Z,3.30
2018-11-03T14:41:35.671Z,4.83
2018-11-03T14:44:02.665Z,6.50
2018-11-03T14:46:29.624Z,4.90
2018-11-03T14:48:56.542Z,7.97
2018-11-03T14:51:23.501Z,7.23
2018-11-03T14:53:50.420Z,4.43
2018-11-03T14:56:17.318Z,6.10
2018-11-03T14:58:44.225Z,3.30
2018-11-03T15:01:11.137Z,7.53
2018-11-03T15:03:38.059Z,5.93
2018-11-03T15:06:05.027Z,5.37
2018-11-03T15:08:32.038Z,4.13
2018-11-03T15:10:58.931Z,3.90
2018-11-03T15:13:25.943Z,3.90
2018-11-03T15:15:52.799Z,5.70
2018-11-03T15:18:19.751Z,5.00
2018-11-03T15:20:46.682Z,3.90
2018-11-03T15:23:13.590Z,5.10
2018-11-03T15:25:40.509Z,4.97
2018-11-03T15:28:07.437Z,6.03
2018-11-03T15:30:34.345Z,7.03
2018-11-03T15:33:01.274Z,4.23
2018-11-03T15:35:28.176Z,7.40
2018-11-03T15:37:55.093Z,6.50
2018-11-03T15:40:22.021Z,7.83
2018-11-03T15:42:48.924Z,6.30
2018-11-03T15:45:16.937Z,8.93
2018-11-03T15:47:44.423Z,6.63
2018-11-03T15:50:12.450Z,7.63
2018-11-03T15:52:39.484Z,5.50
2018-11-03T15:55:06.674Z,6.03
2018-11-03T15:57:33.630Z,8.23
2018-11-03T16:00:00.694Z,8.07
2018-11-03T16:02:28.088Z,6.97
2018-11-03T16:04:55.042Z,7.10
2018-11-03T16:07:21.969Z,10.00
2018-11-03T16:09:48.857Z,8.23
2018-11-03T16:12:15.869Z,9.20
2018-11-03T16:14:42.696Z,7.80
2018-11-03T16:17:09.608Z,8.90
2018-11-03T16:19:36.612Z,10.87
2018-11-03T16:22:03.496Z,10.83
2018-11-03T16:24:30.429Z,9.97
2018-11-03T16:26:57.384Z,11.40
2018-11-03T16:29:30.970Z,8.83
2018-11-03T16:31:57.959Z,12.13
2018-11-03T16:34:24.820Z,11.37
2018-11-03T16:36:51.769Z,10.17
2018-11-03T16:39:18.664Z,12.03
2018-11-03T16:41:45.665Z,11.67
2018-11-03T16:44:12.586Z,9.83
2018-11-03T16:46:39.522Z,7.73
2018-11-03T16:49:06.553Z,7.50
2018-11-03T16:51:33.475Z,8.80
2018-11-03T16:54:00.393Z,9.27
2018-11-03T16:56:27.300Z,9.87
2018-11-03T16:58:54.223Z,9.83
2018-11-03T17:01:21.148Z,8.50
2018-11-03T17:03:48.060Z,9.60
2018-11-03T17:06:14.991Z,11.07
2018-11-03T17:08:41.872Z,8.10
2018-11-03T17:11:08.809Z,8.47
2018-11-03T17:13:35.724Z,8.53
2018-11-03T17:16:02.637Z,11.50
2018-11-03T17:18:29.588Z,10.97
2018-11-03T17:20:56.463Z,12.70
2018-11-03T17:23:23.427Z,13.83
2018-11-03T17:25:50.341Z,12.23
2018-11-03T17:28:17.230Z,12.90
2018-11-03T17:30:44.152Z,13.43
2018-11-03T17:33:17.717Z,10.37
2018-11-03T17:35:44.651Z,13.37
2018-11-03T17:38:11.585Z,13.20
2018-11-03T17:40:38.563Z,12.60
2018-11-03T17:43:05.503Z,14.07
2018-11-03T17:45:32.433Z,12.00
2018-11-03T17:47:59.365Z,12.17
2018-11-03T17:50:26.308Z,13.03
2018-11-03T17:52:53.236Z,13.07
2018-11-03T17:55:20.161Z,15.40
2018-11-03T17:57:47.118Z,16.40
2018-11-03T18:00:15.323Z,19.45
2018-11-03T18:02:43.242Z,21.30
2018-11-03T18:05:10.133Z,21.35
2018-11-03T18:07:37.167Z,18.70
2018-11-03T18:10:05.037Z,18.10
2018-11-03T18:12:31.929Z,17.25
2018-11-03T18:14:58.832Z,16.40
2018-11-03T18:17:25.745Z,16.62
2018-11-03T18:19:52.725Z,15.18
2018-11-03T18:22:19.608Z,13.98
2018-11-03T18:24:46.549Z,15.38
2018-11-03T18:27:13.469Z,13.10
2018-11-03T18:29:40.369Z,14.45
2018-11-03T18:32:07.301Z,13.58
2018-11-03T18:34:34.269Z,13.70
2018-11-03T18:37:01.197Z,11.35
2018-11-03T18:39:28.129Z,11.57
2018-11-03T18:41:55.040Z,12.50
2018-11-03T18:44:21.945Z,10.05
2018-11-03T18:46:48.940Z,10.05
2018-11-03T18:49:15.801Z,12.23
2018-11-03T18:51:42.775Z,10.50
2018-11-03T18:54:09.684Z,12.78
2018-11-03T18:56:36.630Z,13.15
2018-11-03T18:59:03.814Z,12.28
2018-11-03T19:01:30.749Z,12.53
2018-11-03T19:03:57.711Z,12.07
2018-11-03T19:06:24.642Z,13.62
2018-11-03T19:08:51.607Z,15.03
2018-11-03T19:11:18.545Z,19.42
2018-11-03T19:13:45.473Z,23.70
2018-11-03T19:16:12.604Z,29.50
2018-11-03T19:18:41.896Z,28.67
2018-11-03T19:21:09.069Z,34.40
2018-11-03T19:23:36.086Z,32.60
2018-11-03T19:26:02.917Z,28.73
2018-11-03T19:28:29.832Z,27.15
2018-11-03T19:30:56.761Z,27.65
2018-11-03T19:33:23.741Z,29.85
2018-11-03T19:35:50.653Z,21.85
2018-11-03T19:38:17.977Z,19.20
2018-11-03T19:40:44.966Z,19.92
2018-11-03T19:43:11.965Z,16.32
2018-11-03T19:45:38.904Z,14.58
2018-11-03T19:48:05.824Z,19.30
2018-11-03T19:50:32.757Z,18.73
2018-11-03T19:52:59.640Z,18.17
2018-11-03T19:55:26.615Z,16.97
2018-11-03T19:57:53.508Z,16.07
2018-11-03T20:00:20.532Z,16.90
2018-11-03T20:02:47.560Z,18.70
2018-11-03T20:05:14.384Z,16.93
2018-11-03T20:07:42.377Z,19.80
2018-11-03T20:10:09.458Z,17.85
2018-11-03T20:12:36.301Z,20.90
2018-11-03T20:15:03.977Z,22.10
2018-11-03T20:17:30.895Z,23.22
2018-11-03T20:19:57.997Z,26.57
2018-11-03T20:22:24.956Z,27.73
2018-11-03T20:24:51.872Z,28.80
2018-11-03T20:27:18.814Z,37.20
2018-11-03T20:29:45.744Z,30.10
2018-11-03T20:32:19.564Z,29.92
2018-11-03T20:34:46.487Z,27.60
2018-11-03T20:37:13.374Z,28.50
2018-11-03T20:39:40.288Z,24.67
2018-11-03T20:42:07.165Z,23.35
2018-11-03T20:44:34.072Z,18.82
2018-11-03T20:47:00.985Z,17.07
2018-11-03T20:49:27.874Z,15.90
2018-11-03T20:51:54.772Z,17.87
2018-11-03T20:54:21.664Z,15.65
2018-11-03T20:56:48.566Z,15.78
2018-11-03T20:59:15.451Z,15.40
2018-11-03T21:01:42.424Z,15.72
2018-11-03T21:04:09.265Z,17.15
2018-11-03T21:06:36.178Z,16.07
2018-11-03T21:09:03.989Z,15.32
2018-11-03T21:11:30.890Z,16.97
2018-11-03T21:13:57.785Z,14.50
2018-11-03T21:16:24.745Z,13.05
2018-11-03T21:18:51.707Z,14.23
2018-11-03T21:21:18.594Z,14.43
2018-11-03T21:23:45.506Z,13.50
2018-11-03T21:26:12.417Z,12.30
2018-11-03T21:28:39.328Z,17.23
2018-11-03T21:31:06.238Z,13.93
2018-11-03T21:33:33.137Z,12.25
2018-11-03T21:36:00.038Z,13.53
2018-11-03T21:38:26.938Z,16.85
2018-11-03T21:40:54.599Z,11.78
2018-11-03T21:43:21.495Z,15.60
2018-11-03T21:45:48.413Z,12.40
2018-11-03T21:48:15.344Z,12.78
2018-11-03T21:50:42.242Z,15.15
2018-11-03T21:53:09.149Z,12.43
2018-11-03T21:55:36.044Z,12.10
2018-11-03T21:58:02.968Z,12.80
2018-11-03T22:00:29.877Z,11.68
2018-11-03T22:02:56.794Z,12.58
2018-11-03T22:05:23.733Z,13.62
2018-11-03T22:07:50.693Z,15.40
2018-11-03T22:10:17.608Z,11.70
2018-11-03T22:12:44.535Z,11.78
2018-11-03T22:15:11.462Z,12.35
2018-11-03T22:17:38.361Z,11.10
2018-11-03T22:20:06.224Z,11.15
2018-11-03T22:22:33.157Z,11.08
2018-11-03T22:25:07.848Z,13.10
2018-11-03T22:27:35.208Z,11.97
2018-11-03T22:30:02.120Z,11.95
2018-11-03T22:32:29.061Z,11.85
2018-11-03T22:34:55.952Z,12.33
2018-11-03T22:37:23.062Z,13.80
2018-11-03T22:39:49.960Z,12.00
2018-11-03T22:42:16.998Z,13.10
2018-11-03T22:44:43.872Z,12.85
2018-11-03T22:47:11.105Z,12.40
2018-11-03T22:49:43.288Z,15.38
2018-11-03T22:52:10.321Z,12.15
2018-11-03T22:54:37.984Z,12.55
2018-11-03T22:57:04.981Z,13.20
2018-11-03T22:59:31.917Z,15.30
2018-11-03T23:01:59.018Z,15.90
2018-11-03T23:04:25.981Z,13.72
2018-11-03T23:06:52.976Z,13.95
2018-11-03T23:09:19.984Z,13.50
2018-11-03T23:11:47.028Z,13.72
2018-11-03T23:14:13.933Z,13.15
2018-11-03T23:16:40.822Z,12.60
2018-11-03T23:19:07.833Z,12.90
2018-11-03T23:21:34.752Z,13.30
2018-11-03T23:24:01.676Z,13.83
2018-11-03T23:26:28.592Z,14.30
2018-11-03T23:28:55.501Z,14.90
2018-11-03T23:31:22.376Z,15.13
2018-11-03T23:33:49.568Z,15.32
2018-11-03T23:36:16.451Z,16.48
2018-11-03T23:38:43.344Z,14.93
2018-11-03T23:41:10.303Z,15.35
2018-11-03T23:43:37.216Z,15.30
2018-11-03T23:46:04.456Z,15.32
2018-11-03T23:48:31.345Z,16.87
2018-11-03T23:50:58.244Z,15.60
2018-11-03T23:53:25.210Z,15.58
2018-11-03T23:55:52.064Z,14.95
2018-11-03T23:58:18.963Z,17.73
